Time;durP1;ratioP1;P1;durP2;ratioP2;P2;SDS_P1;SDS_P2;PMS_P1;PMS_P2;Temp;Humidity;BMP_temperature;BMP_pressure;BME280_temperature;BME280_humidity;BME280_pressure;Samples;Min_cycle;Max_cycle;Signal;HPM_P1;HPM_P2
2023/05/13 00:00:39;;;;;;;5.87;4.80;;;11.60;33.20;;;;;;5061078;28;20606;-94
2023/05/13 00:03:06;;;;;;;10.50;5.00;;;11.50;32.90;;;;;;5076929;28;20297;-96
2023/05/13 00:05:32;;;;;;;8.53;5.37;;;11.40;31.80;;;;;;5076523;28;20203;-94
2023/05/13 00:08:00;;;;;;;8.20;4.87;;;11.30;33.20;;;;;;5056685;28;20572;-94
2023/05/13 00:10:27;;;;;;;7.77;4.97;;;11.30;37.00;;;;;;5057022;28;20290;-93
2023/05/13 00:12:54;;;;;;;9.37;5.87;;;11.20;39.20;;;;;;5056262;28;20199;-94
2023/05/13 00:15:21;;;;;;;8.23;5.03;;;11.20;39.70;;;;;;5056254;28;20200;-93
2023/05/13 00:17:49;;;;;;;9.07;4.83;;;11.10;40.70;;;;;;5056839;28;20283;-94
2023/05/13 00:20:16;;;;;;;5.87;4.47;;;11.10;39.30;;;;;;5055857;28;20225;-94
2023/05/13 00:22:43;;;;;;;9.70;4.80;;;11.00;40.50;;;;;;5058884;28;20569;-93
2023/05/13 00:25:10;;;;;;;7.03;4.90;;;11.00;42.00;;;;;;5074194;28;20202;-95
2023/05/13 00:27:36;;;;;;;8.07;5.07;;;10.90;42.90;;;;;;5062865;28;20202;-94
2023/05/13 00:30:04;;;;;;;8.47;5.30;;;10.90;44.90;;;;;;5057922;28;20578;-93
2023/05/13 00:32:31;;;;;;;10.53;5.17;;;10.90;46.60;;;;;;5056218;28;20607;-93
2023/05/13 00:34:59;;;;;;;8.53;4.93;;;10.80;45.60;;;;;;5055939;28;20231;-94
2023/05/13 00:37:26;;;;;;;24.40;5.30;;;10.80;43.60;;;;;;5075569;28;20202;-95
2023/05/13 00:39:53;;;;;;;7.50;5.33;;;10.80;47.60;;;;;;5076001;28;20193;-94
2023/05/13 00:42:20;;;;;;;11.17;5.30;;;10.90;45.00;;;;;;5075873;28;20274;-94
2023/05/13 00:44:46;;;;;;;11.23;5.40;;;10.90;44.60;;;;;;5076122;28;20212;-94
2023/05/13 00:47:13;;;;;;;10.73;5.03;;;10.90;45.70;;;;;;5075760;28;20193;-93
2023/05/13 00:49:40;;;;;;;7.43;5.10;;;10.80;46.40;;;;;;5075911;28;20207;-95
2023/05/13 00:52:08;;;;;;;6.87;4.83;;;10.80;47.90;;;;;;5064498;28;20262;-94
2023/05/13 00:54:35;;;;;;;9.20;4.83;;;10.80;47.60;;;;;;5055889;28;20213;-94
2023/05/13 00:57:02;;;;;;;9.10;5.27;;;10.70;48.90;;;;;;5055839;28;20589;-94
2023/05/13 00:59:30;;;;;;;8.80;5.30;;;10.70;49.00;;;;;;5070924;28;20260;-95
2023/05/13 01:02:05;;;;;;;10.47;5.00;;;10.70;52.40;;;;;;5071454;28;20216;-94
2023/05/13 01:04:40;;;;;;;12.50;5.60;;;10.60;52.50;;;;;;5056000;28;20208;-92
2023/05/13 01:07:18;;;;;;;6.90;5.27;;;10.60;54.10;;;;;;5068461;28;20633;-94
2023/05/13 01:09:55;;;;;;;6.67;5.07;;;10.50;53.50;;;;;;5075047;28;20187;-94
2023/05/13 01:12:28;;;;;;;8.63;5.07;;;10.50;54.40;;;;;;5059438;28;20208;-93
2023/05/13 01:15:05;;;;;;;9.67;5.07;;;10.50;56.30;;;;;;5055623;28;20195;-93
2023/05/13 01:17:35;;;;;;;9.67;5.50;;;10.50;56.30;;;;;;5055736;28;20187;-95
2023/05/13 01:20:04;;;;;;;7.50;5.33;;;10.50;57.70;;;;;;5071651;28;20266;-96
2023/05/13 01:22:32;;;;;;;10.33;6.37;;;10.40;57.90;;;;;;5075152;28;20203;-95
2023/05/13 01:24:59;;;;;;;16.43;5.57;;;10.40;57.00;;;;;;5075402;28;20196;-94
2023/05/13 01:27:26;;;;;;;8.60;5.43;;;10.40;59.20;;;;;;5075346;28;20661;-95
2023/05/13 01:29:53;;;;;;;8.97;5.60;;;10.30;57.20;;;;;;5068884;28;20200;-94
2023/05/13 01:32:22;;;;;;;10.20;5.63;;;10.30;60.60;;;;;;5055271;28;20215;-96
2023/05/13 01:34:51;;;;;;;12.87;5.80;;;10.20;62.80;;;;;;5065417;28;20327;-95
2023/05/13 01:37:18;;;;;;;8.40;5.87;;;10.20;62.50;;;;;;5055255;28;20193;-94
2023/05/13 01:39:47;;;;;;;7.53;5.40;;;10.20;63.80;;;;;;5054636;28;20193;-95
2023/05/13 01:42:14;;;;;;;12.03;5.40;;;10.20;65.10;;;;;;5055169;28;20227;-93
2023/05/13 01:44:41;;;;;;;9.57;6.17;;;10.20;65.90;;;;;;5054871;28;20279;-95
2023/05/13 01:47:08;;;;;;;9.97;5.53;;;10.10;63.10;;;;;;5055121;28;20202;-95
2023/05/13 01:49:34;;;;;;;12.53;6.30;;;10.10;65.70;;;;;;5074889;28;20687;-94
2023/05/13 01:52:03;;;;;;;13.00;6.23;;;10.10;69.00;;;;;;5075048;28;20201;-94
2023/05/13 01:54:29;;;;;;;8.53;5.77;;;10.10;68.90;;;;;;5062673;28;20203;-95
2023/05/13 01:56:58;;;;;;;13.23;6.47;;;10.10;70.30;;;;;;5061584;28;20588;-95
2023/05/13 01:59:24;;;;;;;7.97;6.00;;;10.10;73.40;;;;;;5072088;28;20274;-94
2023/05/13 02:01:51;;;;;;;10.13;5.63;;;10.10;76.00;;;;;;5054908;28;20222;-94
2023/05/13 02:04:18;;;;;;;10.13;5.90;;;10.10;78.50;;;;;;5054033;28;20587;-95
2023/05/13 02:06:45;;;;;;;7.77;6.07;;;10.10;77.80;;;;;;5054626;28;20199;-93
2023/05/13 02:09:12;;;;;;;7.93;5.33;;;10.10;80.20;;;;;;5054576;28;20201;-93
2023/05/13 02:11:38;;;;;;;8.20;5.40;;;10.10;81.50;;;;;;5055009;28;20190;-94
2023/05/13 02:14:07;;;;;;;9.73;5.83;;;10.10;82.20;;;;;;5054347;28;20664;-95
2023/05/13 02:16:33;;;;;;;8.57;5.63;;;10.20;84.00;;;;;;5054676;28;20578;-95
2023/05/13 02:19:00;;;;;;;8.57;5.87;;;10.30;81.30;;;;;;5054463;28;20210;-95
2023/05/13 02:21:27;;;;;;;8.07;5.80;;;10.30;80.30;;;;;;5054863;28;20223;-94
2023/05/13 02:23:54;;;;;;;7.27;5.50;;;10.40;78.90;;;;;;5054725;28;20193;-95
2023/05/13 02:26:21;;;;;;;10.03;5.47;;;10.50;78.00;;;;;;5073487;28;20208;-95
2023/05/13 02:28:48;;;;;;;8.40;5.57;;;10.60;76.60;;;;;;5075086;28;20198;-94
2023/05/13 02:31:16;;;;;;;10.03;6.00;;;10.60;82.00;;;;;;5074474;28;20200;-93
2023/05/13 02:33:43;;;;;;;8.47;5.63;;;10.70;82.90;;;;;;5074239;28;20234;-94
2023/05/13 02:36:09;;;;;;;6.30;5.03;;;10.70;81.00;;;;;;5074248;28;20197;-95
2023/05/13 02:38:36;;;;;;;9.63;5.83;;;10.70;80.10;;;;;;5066674;28;20193;-95
2023/05/13 02:41:03;;;;;;;9.83;6.10;;;10.70;79.20;;;;;;5065358;28;20344;-96
2023/05/13 02:43:30;;;;;;;11.07;5.73;;;10.80;79.40;;;;;;5074748;28;20199;-95
2023/05/13 02:45:57;;;;;;;9.50;5.73;;;10.90;73.10;;;;;;5074837;28;20200;-96
2023/05/13 02:48:25;;;;;;;10.37;5.90;;;11.00;78.10;;;;;;5067101;28;20205;-96
2023/05/13 02:50:52;;;;;;;8.70;5.80;;;11.10;78.60;;;;;;5072231;28;20191;-96
2023/05/13 02:53:19;;;;;;;8.07;5.40;;;11.10;64.80;;;;;;5055918;28;20266;-95
2023/05/13 02:55:46;;;;;;;11.30;5.87;;;11.20;69.40;;;;;;5055002;28;20235;-95
2023/05/13 02:58:13;;;;;;;11.03;5.90;;;11.30;75.60;;;;;;5055763;28;20283;-95
2023/05/13 03:00:41;;;;;;;9.17;5.70;;;11.30;74.00;;;;;;5075609;28;20629;-95
2023/05/13 03:03:08;;;;;;;10.57;6.10;;;11.40;77.20;;;;;;5054404;28;20206;-95
2023/05/13 03:05:36;;;;;;;7.97;5.73;;;11.40;76.60;;;;;;5053931;28;20226;-94
2023/05/13 03:08:03;;;;;;;13.10;5.77;;;11.40;72.60;;;;;;5054377;28;20241;-94
2023/05/13 03:10:30;;;;;;;11.23;5.60;;;11.30;75.60;;;;;;5091913;28;20291;-95
2023/05/13 03:12:57;;;;;;;8.67;6.07;;;11.30;95.70;;;;;;5094627;28;20205;-95
2023/05/13 03:15:24;;;;;;;7.70;6.10;;;11.20;74.80;;;;;;5083730;28;20206;-95
2023/05/13 03:17:51;;;;;;;10.80;6.13;;;11.10;78.70;;;;;;5054594;28;20194;-95
2023/05/13 03:20:18;;;;;;;10.17;5.97;;;11.00;73.60;;;;;;5053506;28;20198;-95
2023/05/13 03:22:46;;;;;;;8.60;5.73;;;10.90;77.90;;;;;;5054043;28;20283;-94
2023/05/13 03:25:13;;;;;;;9.57;6.17;;;10.80;80.10;;;;;;5054879;28;20377;-94
2023/05/13 03:27:40;;;;;;;12.90;6.43;;;10.70;85.30;;;;;;5061457;28;20273;-95
2023/05/13 03:30:08;;;;;;;9.67;6.40;;;10.60;85.90;;;;;;5077639;28;20207;-96
2023/05/13 03:32:35;;;;;;;8.23;6.23;;;10.60;90.00;;;;;;5058547;28;20292;-95
2023/05/13 03:35:02;;;;;;;9.70;6.00;;;10.60;90.30;;;;;;5056917;28;20247;-95
2023/05/13 03:37:29;;;;;;;7.17;5.83;;;10.60;90.50;;;;;;5075750;28;20218;-95
2023/05/13 03:39:57;;;;;;;8.33;6.20;;;10.60;89.30;;;;;;5070527;28;20194;-94
2023/05/13 03:42:25;;;;;;;8.90;5.93;;;10.60;90.00;;;;;;5077143;28;20701;-95
2023/05/13 03:44:52;;;;;;;10.33;6.53;;;10.60;90.40;;;;;;5077256;28;20197;-96
2023/05/13 03:47:18;;;;;;;9.23;6.20;;;10.80;85.70;;;;;;5077650;28;20318;-94
2023/05/13 03:49:46;;;;;;;9.50;6.10;;;11.10;94.40;;;;;;5076827;28;20280;-95
2023/05/13 03:52:13;;;;;;;9.17;6.03;;;11.50;92.80;;;;;;5074838;28;20669;-94
2023/05/13 03:54:40;;;;;;;10.57;6.10;;;11.90;94.50;;;;;;5063958;28;20203;-94
2023/05/13 03:57:09;;;;;;;10.27;6.03;;;12.30;93.60;;;;;;5057085;28;20209;-95
2023/05/13 03:59:35;;;;;;;7.83;5.70;;;12.70;94.30;;;;;;5077055;28;20202;-95
2023/05/13 04:02:02;;;;;;;8.20;5.70;;;13.00;92.20;;;;;;5064590;28;20686;-95
2023/05/13 04:04:29;;;;;;;13.27;6.00;;;13.30;90.30;;;;;;5056548;28;20210;-96
2023/05/13 04:06:56;;;;;;;8.07;5.60;;;13.50;91.60;;;;;;5056781;28;20193;-95
2023/05/13 04:09:23;;;;;;;7.30;5.60;;;13.70;90.60;;;;;;5067070;28;20584;-96
2023/05/13 04:11:49;;;;;;;16.00;6.97;;;14.00;88.40;;;;;;5077722;28;20198;-94
2023/05/13 04:14:18;;;;;;;11.57;5.80;;;14.10;86.90;;;;;;5078922;28;20202;-95
2023/05/13 04:16:45;;;;;;;7.77;5.97;;;14.40;99.50;;;;;;5080140;28;20202;-95
2023/05/13 04:19:11;;;;;;;12.07;6.03;;;14.60;64.60;;;;;;5062357;28;20614;-95
2023/05/13 04:21:38;;;;;;;9.30;5.73;;;14.80;82.70;;;;;;5083385;28;20256;-95
2023/05/13 04:24:06;;;;;;;8.97;5.97;;;15.00;78.90;;;;;;5090947;28;20202;-94
2023/05/13 04:26:33;;;;;;;15.27;5.90;;;15.20;79.80;;;;;;5077531;28;20212;-96
2023/05/13 04:29:00;;;;;;;8.13;5.20;;;15.30;68.70;;;;;;5084012;28;20286;-96
2023/05/13 04:31:28;;;;;;;8.65;5.55;;;15.50;63.00;;;;;;5066760;28;20206;-96
2023/05/13 04:33:56;;;;;;;9.85;5.55;;;15.60;66.70;;;;;;5068842;28;20227;-96
2023/05/13 04:36:23;;;;;;;11.40;6.13;;;15.80;70.40;;;;;;5068842;28;20199;-96
2023/05/13 04:38:50;;;;;;;11.43;5.93;;;15.90;62.50;;;;;;5077458;28;20216;-95
2023/05/13 04:41:17;;;;;;;9.40;5.75;;;16.10;66.30;;;;;;5058063;28;20204;-96
2023/05/13 04:43:44;;;;;;;8.50;5.40;;;16.30;66.60;;;;;;5066019;28;20207;-96
2023/05/13 04:46:11;;;;;;;9.70;6.28;;;16.40;61.60;;;;;;5078176;28;20259;-96
2023/05/13 04:48:40;;;;;;;7.35;5.53;;;16.50;67.00;;;;;;5217885;22;20220;-96
2023/05/13 04:51:07;;;;;;;10.30;6.05;;;16.60;53.20;;;;;;4554424;22;21753;-94
2023/05/13 04:53:34;;;;;;;9.32;5.68;;;16.70;61.90;;;;;;5090737;28;20272;-96
2023/05/13 04:58:38;;;;;;;7.70;5.45;;;16.40;65.30;;;;;;5140250;22;20231;-96
2023/05/13 05:01:06;;;;;;;8.82;5.93;;;16.00;47.10;;;;;;5097882;28;20187;-96
2023/05/13 05:03:36;;;;;;;8.52;5.75;;;15.70;49.70;;;;;;5097984;28;20242;-96
2023/05/13 05:06:04;;;;;;;8.88;6.20;;;15.40;50.60;;;;;;5793271;23;20301;-96
2023/05/13 05:08:31;;;;;;;8.47;6.27;;;15.10;44.20;;;;;;5538136;22;20301;-95
2023/05/13 05:11:00;;;;;;;7.07;6.00;;;14.90;59.10;;;;;;5558368;22;21039;-95
2023/05/13 05:16:02;;;;;;;12.10;6.03;;;14.50;66.30;;;;;;5716235;22;20294;-95
2023/05/13 05:28:48;;;;;;;9.93;5.97;;;14.30;70.70;;;;;;5048060;28;20217;-96
2023/05/13 05:33:51;;;;;;;10.13;6.17;;;14.20;74.20;;;;;;5638276;22;20204;-94
2023/05/13 05:36:18;;;;;;;9.47;6.47;;;14.30;52.20;;;;;;5971994;22;20299;-96
2023/05/13 05:38:46;;;;;;;8.77;6.00;;;14.30;55.80;;;;;;5712069;22;20201;-95
2023/05/13 05:41:13;;;;;;;8.10;6.10;;;14.30;57.50;;;;;;5082137;28;20187;-96
2023/05/13 05:43:40;;;;;;;9.30;6.10;;;14.30;55.40;;;;;;5083569;28;20225;-95
2023/05/13 05:46:09;;;;;;;7.33;5.93;;;14.30;55.90;;;;;;5093095;28;20204;-96
2023/05/13 05:48:36;;;;;;;9.23;6.33;;;14.40;59.30;;;;;;5090409;28;20187;-95
2023/05/13 05:51:03;;;;;;;9.73;6.50;;;14.50;65.00;;;;;;5092977;28;20195;-95
2023/05/13 05:53:30;;;;;;;8.87;6.00;;;14.60;61.90;;;;;;5940111;22;20228;-96
2023/05/13 05:55:57;;;;;;;7.07;5.67;;;14.60;63.10;;;;;;5340473;22;20227;-95
2023/05/13 05:58:25;;;;;;;15.43;6.03;;;14.60;59.10;;;;;;5385439;22;20336;-96
2023/05/13 06:00:53;;;;;;;7.67;6.10;;;14.70;60.50;;;;;;5060215;28;20175;-96
2023/05/13 06:08:28;;;;;;;10.00;6.00;;;14.80;83.20;;;;;;5147502;22;20238;-96
2023/05/13 06:10:56;;;;;;;8.43;5.80;;;14.90;74.90;;;;;;5043242;28;20197;-96
2023/05/13 06:13:23;;;;;;;7.50;5.67;;;15.00;79.20;;;;;;5033716;28;20197;-95
2023/05/13 06:15:50;;;;;;;8.70;5.47;;;15.10;69.00;;;;;;5058185;28;20210;-95
2023/05/13 06:18:17;;;;;;;8.83;6.00;;;15.10;75.10;;;;;;5047452;28;20205;-96
2023/05/13 06:20:44;;;;;;;7.87;5.73;;;15.20;83.50;;;;;;5044617;28;20260;-96
2023/05/13 06:23:13;;;;;;;10.63;5.67;;;15.20;64.70;;;;;;5050206;28;20284;-95
2023/05/13 06:25:42;;;;;;;13.45;6.00;;;15.30;69.60;;;;;;5060321;28;20202;-96
2023/05/13 06:30:47;;;;;;;9.23;5.67;;;15.60;90.00;;;;;;5879135;22;20213;-96
2023/05/13 06:35:49;;;;;;;9.03;5.20;;;15.80;90.30;;;;;;5828179;22;21124;-89
2023/05/13 06:46:03;;;;;;;12.05;4.90;;;16.40;99.90;;;;;;6183139;22;20183;-87
2023/05/13 06:53:41;;;;;;;8.75;4.72;;;16.90;99.90;;;;;;5791592;22;20204;-95
2023/05/13 06:56:08;;;;;;;11.68;5.32;;;17.00;75.10;;;;;;5054609;28;20181;-95
2023/05/13 06:58:35;;;;;;;5.88;4.45;;;17.20;85.30;;;;;;5055287;28;20193;-95
2023/05/13 07:01:03;;;;;;;5.25;4.75;;;17.30;69.80;;;;;;5073042;28;20200;-96
2023/05/13 07:03:30;;;;;;;7.00;4.85;;;17.40;71.00;;;;;;5074987;28;20280;-96
2023/05/13 07:06:05;;;;;;;6.70;4.63;;;17.40;71.60;;;;;;5065711;28;20228;-96
2023/05/13 07:08:32;;;;;;;8.02;5.15;;;17.50;81.00;;;;;;5039843;28;20184;-96
2023/05/13 07:10:59;;;;;;;6.82;4.63;;;17.70;72.90;;;;;;5038411;28;20202;-95
2023/05/13 07:13:26;;;;;;;6.70;4.30;;;17.70;72.80;;;;;;5055674;28;20190;-96
2023/05/13 07:15:53;;;;;;;8.15;4.28;;;17.80;72.30;;;;;;5045974;28;20720;-94
2023/05/13 07:18:21;;;;;;;6.25;4.00;;;18.00;78.40;;;;;;5057665;28;20202;-96
2023/05/13 07:20:48;;;;;;;7.68;4.15;;;18.10;64.80;;;;;;5038875;28;20200;-96
2023/05/13 07:23:15;;;;;;;7.85;4.40;;;18.20;58.70;;;;;;5040083;28;20765;-95
2023/05/13 07:25:42;;;;;;;6.35;3.97;;;18.40;64.30;;;;;;5054101;28;20244;-95
2023/05/13 07:28:09;;;;;;;10.10;4.45;;;18.50;67.30;;;;;;5065843;28;20193;-96
2023/05/13 07:30:35;;;;;;;6.47;3.80;;;18.50;71.40;;;;;;5064884;28;20614;-96
2023/05/13 07:33:04;;;;;;;4.85;3.63;;;18.60;68.90;;;;;;5064735;28;20213;-96
2023/05/13 07:35:33;;;;;;;6.40;3.88;;;18.70;57.40;;;;;;5065276;28;20203;-96
2023/05/13 07:38:02;;;;;;;6.65;3.83;;;18.80;62.30;;;;;;5043675;28;20266;-96
2023/05/13 07:40:29;;;;;;;6.43;4.18;;;18.80;62.90;;;;;;5238459;22;20430;-96
2023/05/13 07:42:56;;;;;;;7.32;4.15;;;18.90;53.30;;;;;;5212169;22;20703;-95
2023/05/13 07:47:54;;;;;;;5.00;3.80;;;19.10;56.10;;;;;;5138962;22;20195;-96
2023/05/13 07:50:21;;;;;;;6.72;3.70;;;19.20;51.70;;;;;;5091989;28;20188;-96
2023/05/13 07:52:50;;;;;;;4.30;2.85;;;19.30;51.70;;;;;;5499073;22;20257;-96
2023/05/13 07:55:17;;;;;;;5.78;3.28;;;19.50;45.30;;;;;;5445715;22;20216;-96
2023/05/13 07:57:44;;;;;;;9.02;3.22;;;19.70;49.00;;;;;;5096409;28;20219;-96
2023/05/13 08:00:12;;;;;;;5.10;3.15;;;19.80;41.40;;;;;;5086107;28;20223;-95
2023/05/13 08:02:39;;;;;;;5.88;3.00;;;19.90;48.40;;;;;;5300404;22;20204;-96
2023/05/13 08:05:07;;;;;;;5.15;2.83;;;20.00;47.80;;;;;;5261659;22;20249;-96
2023/05/13 08:07:34;;;;;;;6.60;3.08;;;20.10;42.50;;;;;;5052021;28;20245;-96
2023/05/13 08:10:02;;;;;;;8.93;2.92;;;20.20;54.10;;;;;;5304153;22;20284;-96
2023/05/13 08:20:15;;;;;;;5.30;2.80;;;20.20;45.30;;;;;;3877430;22;21958;-96
2023/05/13 08:22:45;;;;;;;6.95;2.92;;;20.30;29.00;;;;;;5370172;22;20252;-96
2023/05/13 08:33:10;;;;;;;6.03;3.00;;;20.50;40.30;;;;;;6060569;22;20199;-96
2023/05/13 08:46:01;;;;;;;4.50;3.30;;;20.90;39.50;;;;;;3191608;22;21755;-93
2023/05/13 08:48:29;;;;;;;5.20;3.30;;;21.00;39.40;;;;;;5018360;28;20234;-96
2023/05/13 08:50:57;;;;;;;7.28;3.42;;;20.90;47.40;;;;;;5009439;28;20205;-96
2023/05/13 08:53:25;;;;;;;4.85;3.58;;;20.90;45.70;;;;;;5018978;28;20190;-96
2023/05/13 08:55:53;;;;;;;7.72;3.58;;;21.00;52.20;;;;;;5001812;28;20719;-96
2023/05/13 08:58:19;;;;;;;11.43;3.50;;;21.00;51.90;;;;;;5003312;28;20210;-96
2023/05/13 09:00:48;;;;;;;6.25;2.97;;;21.10;69.00;;;;;;5008805;28;20555;-96
2023/05/13 09:03:15;;;;;;;4.25;3.30;;;21.20;54.90;;;;;;5017743;28;20222;-95
2023/05/13 09:05:44;;;;;;;6.25;3.50;;;21.30;63.30;;;;;;5022998;28;20202;-96
2023/05/13 09:08:11;;;;;;;10.38;3.13;;;21.30;79.30;;;;;;5009049;28;20282;-96
2023/05/13 09:10:38;;;;;;;8.38;3.20;;;21.30;97.30;;;;;;5005727;28;20199;-95
2023/05/13 09:13:06;;;;;;;5.28;3.40;;;21.40;89.00;;;;;;5001374;28;20218;-95
2023/05/13 09:15:33;;;;;;;4.78;3.28;;;21.40;88.10;;;;;;5006977;28;20199;-96
2023/05/13 09:18:01;;;;;;;5.97;3.10;;;21.30;99.90;;;;;;5001286;28;20232;-95
2023/05/13 09:20:28;;;;;;;9.10;3.47;;;21.20;99.90;;;;;;5008384;28;20662;-96
2023/05/13 09:22:59;;;;;;;5.43;3.10;;;21.10;99.90;;;;;;5005671;28;20225;-96
2023/05/13 09:25:27;;;;;;;9.15;2.72;;;21.20;99.90;;;;;;5006028;28;20205;-96
2023/05/13 09:27:57;;;;;;;6.97;2.80;;;21.20;99.90;;;;;;5010994;28;20285;-96
2023/05/13 09:30:24;;;;;;;6.57;3.25;;;21.40;99.90;;;;;;5023660;28;20187;-96
2023/05/13 09:33:07;;;;;;;6.20;3.17;;;21.40;99.90;;;;;;5016404;28;20247;-96
2023/05/13 09:35:35;;;;;;;5.70;3.17;;;21.40;99.90;;;;;;5004257;28;20210;-96
2023/05/13 09:38:13;;;;;;;5.07;3.15;;;21.50;99.90;;;;;;5019728;28;20199;-96
2023/05/13 09:40:40;;;;;;;7.82;2.80;;;21.40;99.90;;;;;;5001046;28;20194;-96
2023/05/13 09:43:07;;;;;;;4.22;2.70;;;21.60;99.90;;;;;;5009180;28;20674;-96
2023/05/13 09:45:34;;;;;;;4.85;3.03;;;21.70;99.90;;;;;;5015957;28;20195;-96
2023/05/13 09:48:01;;;;;;;4.13;2.70;;;21.90;99.90;;;;;;5015123;28;20589;-95
2023/05/13 09:50:28;;;;;;;5.72;3.13;;;22.20;99.90;;;;;;4995874;28;20215;-94
2023/05/13 09:52:55;;;;;;;4.57;2.78;;;22.60;99.90;;;;;;4995918;28;20194;-96
2023/05/13 09:55:23;;;;;;;6.70;2.72;;;22.90;99.90;;;;;;5011756;28;20289;-94
2023/05/13 09:57:50;;;;;;;5.50;2.70;;;22.90;99.90;;;;;;5015375;28;20277;-93
2023/05/13 10:00:18;;;;;;;6.25;2.60;;;23.10;99.90;;;;;;5015336;28;20194;-96
2023/05/13 10:02:45;;;;;;;11.32;3.03;;;23.10;99.90;;;;;;5014910;28;20205;-94
2023/05/13 10:05:13;;;;;;;4.28;2.90;;;23.00;99.90;;;;;;5015898;28;20201;-96
2023/05/13 10:07:40;;;;;;;5.50;3.00;;;23.00;99.90;;;;;;4994799;28;20199;-93
2023/05/13 10:10:08;;;;;;;5.43;2.70;;;23.20;99.90;;;;;;4996306;28;20195;-96
2023/05/13 10:12:39;;;;;;;4.85;2.70;;;23.60;99.90;;;;;;5002388;28;20206;-93
2023/05/13 10:15:09;;;;;;;4.72;2.70;;;23.90;99.90;;;;;;5003060;28;20815;-94
2023/05/13 10:17:39;;;;;;;6.38;3.28;;;24.00;99.90;;;;;;5018224;28;20186;-95
2023/05/13 10:20:06;;;;;;;16.85;3.97;;;23.90;99.90;;;;;;5008131;28;20648;-94
2023/05/13 10:22:34;;;;;;;5.78;2.75;;;23.90;99.90;;;;;;5001646;28;20193;-94
2023/05/13 10:25:03;;;;;;;9.93;2.80;;;23.80;99.90;;;;;;4997892;28;20195;-94
2023/05/13 10:27:33;;;;;;;7.50;2.60;;;23.70;99.90;;;;;;5004047;28;20206;-94
2023/05/13 10:30:03;;;;;;;7.35;2.80;;;23.60;99.90;;;;;;5002682;28;20220;-93
2023/05/13 10:32:31;;;;;;;6.20;2.53;;;23.50;99.90;;;;;;5010406;28;20624;-96
2023/05/13 10:35:04;;;;;;;6.63;2.42;;;23.30;99.90;;;;;;5016752;28;20577;-94
2023/05/13 10:37:55;;;;;;;5.20;2.42;;;23.20;99.90;;;;;;5018388;28;20193;-96
2023/05/13 10:41:08;;;;;;;6.65;2.55;;;23.20;99.90;;;;;;5015724;28;20190;-94
2023/05/13 10:43:36;;;;;;;14.90;3.78;;;23.50;99.90;;;;;;5011223;28;20293;-95
2023/05/13 10:46:05;;;;;;;6.88;2.30;;;23.50;99.90;;;;;;5023193;28;20198;-94
2023/05/13 10:48:42;;;;;;;3.05;2.50;;;23.60;99.90;;;;;;5026920;28;20222;-95
2023/05/13 10:51:13;;;;;;;6.95;2.58;;;23.80;99.90;;;;;;5029051;28;20276;-95
2023/05/13 10:53:44;;;;;;;4.25;2.40;;;24.20;99.90;;;;;;5037086;28;20199;-94
2023/05/13 10:56:11;;;;;;;15.02;3.10;;;24.50;99.90;;;;;;5048203;28;20285;-94
2023/05/13 10:58:38;;;;;;;4.90;2.40;;;24.70;99.90;;;;;;5033185;28;20574;-96
2023/05/13 11:01:17;;;;;;;4.88;2.53;;;24.80;99.90;;;;;;5034249;28;20233;-96
2023/05/13 11:03:55;;;;;;;3.25;2.30;;;24.70;99.90;;;;;;5039840;28;20202;-96
2023/05/13 11:06:23;;;;;;;4.57;2.28;;;24.60;99.90;;;;;;5029569;28;20206;-95
2023/05/13 11:08:51;;;;;;;11.10;2.55;;;24.80;99.90;;;;;;5038295;28;20197;-96
2023/05/13 11:11:31;;;;;;;11.93;2.60;;;25.00;99.90;;;;;;5038713;28;20202;-96
2023/05/13 11:14:14;;;;;;;8.88;2.60;;;25.20;99.90;;;;;;5019137;28;20542;-96
2023/05/13 11:16:48;;;;;;;3.92;2.00;;;25.20;99.90;;;;;;5038975;28;20257;-96
2023/05/13 11:19:22;;;;;;;5.78;2.45;;;25.10;99.90;;;;;;5031800;28;20186;-96
2023/05/13 11:21:52;;;;;;;7.97;2.47;;;25.00;99.90;;;;;;5026029;28;20197;-94
2023/05/13 11:24:20;;;;;;;4.22;2.45;;;25.00;99.90;;;;;;5026447;28;20246;-95
2023/05/13 11:26:48;;;;;;;6.68;2.33;;;25.00;99.90;;;;;;5025940;28;20202;-92
2023/05/13 11:29:15;;;;;;;5.50;2.63;;;25.10;99.90;;;;;;5017775;28;20190;-92
2023/05/13 11:31:47;;;;;;;7.00;2.38;;;25.20;99.90;;;;;;5029083;28;20281;-93
2023/05/13 11:34:16;;;;;;;4.78;2.47;;;25.30;99.90;;;;;;5029681;28;20212;-93
2023/05/13 11:36:45;;;;;;;6.10;2.30;;;25.50;99.90;;;;;;5028434;28;20202;-93
2023/05/13 11:39:14;;;;;;;57.72;4.90;;;25.80;99.90;;;;;;5036904;28;20232;-93
2023/05/13 11:41:44;;;;;;;20.50;3.10;;;25.90;99.90;;;;;;5029220;28;20201;-93
2023/05/13 11:44:12;;;;;;;12.02;2.55;;;25.90;99.90;;;;;;5033035;28;20218;-93
2023/05/13 11:46:51;;;;;;;6.35;2.60;;;25.90;99.90;;;;;;5032011;28;20313;-94
2023/05/13 11:49:32;;;;;;;3.88;2.13;;;25.80;99.90;;;;;;5021811;28;20192;-93
2023/05/13 11:51:59;;;;;;;11.25;4.10;;;25.80;99.90;;;;;;5023952;28;20201;-93
2023/05/13 11:54:26;;;;;;;5.90;2.67;;;25.90;99.90;;;;;;5017190;28;20217;-95
2023/05/13 11:56:52;;;;;;;17.80;2.80;;;25.90;99.90;;;;;;5034662;28;20578;-95
2023/05/13 11:59:19;;;;;;;18.35;2.97;;;25.90;99.90;;;;;;5036988;28;20673;-95
2023/05/13 12:01:46;;;;;;;12.38;2.60;;;25.90;99.90;;;;;;5017015;28;20658;-94
2023/05/13 12:04:14;;;;;;;9.45;2.30;;;25.90;99.90;;;;;;5017826;28;20224;-96
2023/05/13 12:06:46;;;;;;;4.25;2.45;;;26.00;99.90;;;;;;5028501;28;20585;-93
2023/05/13 12:09:13;;;;;;;7.93;2.40;;;26.00;99.90;;;;;;5037154;28;20202;-95
2023/05/13 12:11:40;;;;;;;4.60;2.38;;;26.10;99.90;;;;;;5037058;28;20197;-92
2023/05/13 12:14:08;;;;;;;5.40;2.20;;;26.10;99.90;;;;;;5036752;28;20697;-93
2023/05/13 12:16:35;;;;;;;6.78;2.70;;;26.10;99.90;;;;;;5036441;28;20186;-94
2023/05/13 12:19:05;;;;;;;11.93;2.75;;;26.10;99.90;;;;;;5036620;28;20259;-92
2023/05/13 12:21:34;;;;;;;6.88;2.53;;;26.10;99.90;;;;;;5036339;28;20198;-93
2023/05/13 12:24:01;;;;;;;6.13;2.47;;;26.10;99.90;;;;;;5036333;28;20218;-94
2023/05/13 12:26:27;;;;;;;9.45;2.30;;;26.20;99.90;;;;;;5035364;28;20198;-95
2023/05/13 12:28:58;;;;;;;12.27;2.50;;;26.30;99.90;;;;;;5036355;28;20202;-93
2023/05/13 12:31:26;;;;;;;20.75;3.10;;;26.40;99.90;;;;;;5019128;28;20201;-93
2023/05/13 12:33:52;;;;;;;13.25;2.72;;;26.50;99.90;;;;;;5030139;28;20190;-94
2023/05/13 12:36:24;;;;;;;8.27;2.30;;;26.60;99.90;;;;;;5036245;28;20201;-94
2023/05/13 12:38:56;;;;;;;4.40;2.60;;;26.60;99.90;;;;;;5036531;28;20186;-93
2023/05/13 12:41:24;;;;;;;25.17;16.13;;;26.70;99.90;;;;;;5024331;28;20190;-94
2023/05/13 12:43:52;;;;;;;7.55;2.95;;;26.70;99.90;;;;;;5036514;28;20311;-93
2023/05/13 12:46:19;;;;;;;9.50;2.90;;;26.80;99.90;;;;;;5035917;28;20227;-94
2023/05/13 12:48:46;;;;;;;5.10;2.92;;;27.00;99.90;;;;;;5035618;28;20214;-93
2023/05/13 12:51:14;;;;;;;8.50;2.90;;;27.10;99.90;;;;;;5035955;28;20209;-94
2023/05/13 12:53:41;;;;;;;25.17;3.45;;;27.10;99.90;;;;;;5036354;28;20251;-93
2023/05/13 12:56:09;;;;;;;8.13;2.38;;;27.00;99.90;;;;;;5036086;28;20201;-93
2023/05/13 12:58:36;;;;;;;6.70;2.17;;;26.80;99.90;;;;;;5035170;28;20201;-96
2023/05/13 13:01:03;;;;;;;4.72;2.33;;;26.80;99.90;;;;;;5027512;28;20198;-93
2023/05/13 13:03:30;;;;;;;11.05;3.30;;;27.00;99.90;;;;;;5035108;28;20680;-93
2023/05/13 13:05:57;;;;;;;6.00;2.05;;;27.10;99.90;;;;;;5021629;28;20196;-93
2023/05/13 13:08:24;;;;;;;5.78;2.50;;;27.00;99.90;;;;;;5033743;28;20204;-91
2023/05/13 13:10:52;;;;;;;9.05;2.35;;;27.00;99.90;;;;;;5033791;28;20202;-95
2023/05/13 13:13:20;;;;;;;6.15;2.40;;;27.00;99.90;;;;;;5035360;28;20190;-93
2023/05/13 13:15:47;;;;;;;7.32;2.40;;;27.00;99.90;;;;;;5035208;28;20193;-94
2023/05/13 13:18:13;;;;;;;6.95;2.40;;;27.20;99.90;;;;;;5035448;28;20198;-93
2023/05/13 13:20:40;;;;;;;11.98;3.47;;;27.30;99.90;;;;;;5034374;28;20204;-93
2023/05/13 13:23:07;;;;;;;7.82;2.33;;;27.30;99.90;;;;;;5024901;28;20208;-93
2023/05/13 13:25:35;;;;;;;6.32;2.40;;;27.30;99.90;;;;;;5024912;28;20225;-93
2023/05/13 13:28:02;;;;;;;6.32;2.75;;;27.40;99.90;;;;;;5029610;28;20220;-96
2023/05/13 13:30:30;;;;;;;5.45;2.42;;;27.40;99.90;;;;;;5034796;28;20234;-96
2023/05/13 13:32:57;;;;;;;6.45;2.60;;;27.40;99.90;;;;;;5031212;28;20194;-94
2023/05/13 13:35:24;;;;;;;4.53;2.30;;;27.20;99.90;;;;;;5024258;28;20196;-95
2023/05/13 13:37:50;;;;;;;9.88;2.97;;;27.00;99.90;;;;;;5015457;28;20212;-92
2023/05/13 13:40:18;;;;;;;6.07;2.38;;;26.80;99.90;;;;;;5016495;28;20233;-96
2023/05/13 13:42:45;;;;;;;7.50;2.70;;;26.80;99.90;;;;;;5015467;28;20198;-94
2023/05/13 13:45:13;;;;;;;6.40;2.50;;;26.70;99.90;;;;;;5030352;28;20220;-93
2023/05/13 13:47:41;;;;;;;6.78;2.17;;;26.70;99.90;;;;;;5017087;28;20218;-93
2023/05/13 13:50:09;;;;;;;3.97;2.20;;;26.70;99.90;;;;;;5035038;28;20237;-93
2023/05/13 13:52:35;;;;;;;5.03;2.05;;;26.90;99.90;;;;;;5030590;28;20569;-94
2023/05/13 13:55:02;;;;;;;5.07;2.03;;;27.10;99.90;;;;;;5035274;28;20204;-93
2023/05/13 13:57:29;;;;;;;5.65;2.60;;;27.10;99.90;;;;;;5034862;28;20198;-93
2023/05/13 13:59:56;;;;;;;5.15;2.42;;;27.10;99.90;;;;;;5027206;28;20198;-92